sensor_id;sensor_type;location;lat;lon;timestamp;temperature;humidity
44435;DHT22;30138;20.964;105.830;2023-07-22T00:04:27;31.10;99.90
44435;DHT22;30138;20.964;105.830;2023-07-22T00:09:36;31.10;99.90
44435;DHT22;30138;20.964;105.830;2023-07-22T00:14:47;31.00;99.90
44435;DHT22;30138;20.964;105.830;2023-07-22T00:19:55;31.00;99.90
44435;DHT22;30138;20.964;105.830;2023-07-22T00:25:04;31.00;99.90
44435;DHT22;30138;20.964;105.830;2023-07-22T00:30:18;31.00;99.90
44435;DHT22;30138;20.964;105.830;2023-07-22T00:35:26;31.00;99.90
44435;DHT22;30138;20.964;105.830;2023-07-22T00:40:35;31.00;99.90
44435;DHT22;30138;20.964;105.830;2023-07-22T00:45:45;31.00;99.90
44435;DHT22;30138;20.964;105.830;2023-07-22T00:50:54;31.00;99.90
44435;DHT22;30138;20.964;105.830;2023-07-22T00:56:03;31.00;99.90
44435;DHT22;30138;20.964;105.830;2023-07-22T01:01:14;31.00;99.90
44435;DHT22;30138;20.964;105.830;2023-07-22T01:06:22;31.00;99.90
44435;DHT22;30138;20.964;105.830;2023-07-22T01:11:33;31.00;99.90
44435;DHT22;30138;20.964;105.830;2023-07-22T01:16:44;31.00;99.90
44435;DHT22;30138;20.964;105.830;2023-07-22T01:21:54;31.10;99.90
44435;DHT22;30138;20.964;105.830;2023-07-22T01:27:06;31.10;99.90
44435;DHT22;30138;20.964;105.830;2023-07-22T01:32:16;31.10;99.90
44435;DHT22;30138;20.964;105.830;2023-07-22T01:37:25;31.10;99.90
44435;DHT22;30138;20.964;105.830;2023-07-22T01:42:37;31.10;99.90
44435;DHT22;30138;20.964;105.830;2023-07-22T01:47:45;31.10;99.90
44435;DHT22;30138;20.964;105.830;2023-07-22T01:52:53;31.10;99.90
44435;DHT22;30138;20.964;105.830;2023-07-22T01:58:03;31.10;99.90
44435;DHT22;30138;20.964;105.830;2023-07-22T02:03:12;31.10;99.90
44435;DHT22;30138;20.964;105.830;2023-07-22T02:08:21;31.10;99.90
44435;DHT22;30138;20.964;105.830;2023-07-22T02:13:31;31.10;99.90
44435;DHT22;30138;20.964;105.830;2023-07-22T02:18:39;31.10;99.90
44435;DHT22;30138;20.964;105.830;2023-07-22T02:23:52;31.10;99.90
44435;DHT22;30138;20.964;105.830;2023-07-22T02:29:02;31.10;99.90
44435;DHT22;30138;20.964;105.830;2023-07-22T02:34:12;31.20;99.90
44435;DHT22;30138;20.964;105.830;2023-07-22T02:39:20;31.20;99.90
44435;DHT22;30138;20.964;105.830;2023-07-22T02:44:30;31.20;99.90
44435;DHT22;30138;20.964;105.830;2023-07-22T02:49:38;31.20;99.90
44435;DHT22;30138;20.964;105.830;2023-07-22T02:55:05;31.20;99.90
44435;DHT22;30138;20.964;105.830;2023-07-22T03:00:19;31.20;99.90
44435;DHT22;30138;20.964;105.830;2023-07-22T03:05:30;31.30;99.90
44435;DHT22;30138;20.964;105.830;2023-07-22T03:10:38;31.30;99.90
44435;DHT22;30138;20.964;105.830;2023-07-22T03:15:54;31.30;99.90
44435;DHT22;30138;20.964;105.830;2023-07-22T03:21:03;31.30;99.90
44435;DHT22;30138;20.964;105.830;2023-07-22T03:26:12;31.30;99.90
44435;DHT22;30138;20.964;105.830;2023-07-22T03:31:24;31.30;99.90
44435;DHT22;30138;20.964;105.830;2023-07-22T03:36:32;31.40;99.90
44435;DHT22;30138;20.964;105.830;2023-07-22T03:41:40;31.30;99.90
44435;DHT22;30138;20.964;105.830;2023-07-22T03:46:50;31.30;99.90
44435;DHT22;30138;20.964;105.830;2023-07-22T03:51:59;31.30;99.90
44435;DHT22;30138;20.964;105.830;2023-07-22T03:57:08;31.30;99.90
44435;DHT22;30138;20.964;105.830;2023-07-22T04:02:18;31.30;99.90
44435;DHT22;30138;20.964;105.830;2023-07-22T04:07:26;31.30;99.90
44435;DHT22;30138;20.964;105.830;2023-07-22T04:12:34;31.30;99.90
44435;DHT22;30138;20.964;105.830;2023-07-22T04:17:45;31.30;99.90
44435;DHT22;30138;20.964;105.830;2023-07-22T04:22:54;31.30;99.40
44435;DHT22;30138;20.964;105.830;2023-07-22T04:28:05;31.10;87.60
44435;DHT22;30138;20.964;105.830;2023-07-22T04:33:16;30.80;77.20
44435;DHT22;30138;20.964;105.830;2023-07-22T04:38:24;30.60;70.00
44435;DHT22;30138;20.964;105.830;2023-07-22T04:43:33;30.30;65.20
44435;DHT22;30138;20.964;105.830;2023-07-22T04:55:45;29.80;59.60
44435;DHT22;30138;20.964;105.830;2023-07-22T05:00:54;29.80;69.90
44435;DHT22;30138;20.964;105.830;2023-07-22T05:06:03;30.00;76.10
44435;DHT22;30138;20.964;105.830;2023-07-22T05:11:14;30.20;79.70
44435;DHT22;30138;20.964;105.830;2023-07-22T05:16:22;30.40;83.20
44435;DHT22;30138;20.964;105.830;2023-07-22T05:21:30;30.40;79.30
44435;DHT22;30138;20.964;105.830;2023-07-22T05:26:40;30.30;69.80
44435;DHT22;30138;20.964;105.830;2023-07-22T05:31:50;30.10;67.40
44435;DHT22;30138;20.964;105.830;2023-07-22T05:37:01;30.10;73.10
44435;DHT22;30138;20.964;105.830;2023-07-22T05:42:16;30.30;76.80
44435;DHT22;30138;20.964;105.830;2023-07-22T05:47:23;30.40;79.70
44435;DHT22;30138;20.964;105.830;2023-07-22T05:52:32;30.60;82.20
44435;DHT22;30138;20.964;105.830;2023-07-22T05:57:42;30.70;84.50
44435;DHT22;30138;20.964;105.830;2023-07-22T06:02:52;30.80;86.70
44435;DHT22;30138;20.964;105.830;2023-07-22T06:08:01;31.00;88.80
44435;DHT22;30138;20.964;105.830;2023-07-22T06:13:27;31.10;90.30
44435;DHT22;30138;20.964;105.830;2023-07-22T06:18:56;31.20;91.50
44435;DHT22;30138;20.964;105.830;2023-07-22T06:24:06;31.20;92.00
44435;DHT22;30138;20.964;105.830;2023-07-22T06:29:16;31.30;92.80
44435;DHT22;30138;20.964;105.830;2023-07-22T06:34:27;31.40;93.50
44435;DHT22;30138;20.964;105.830;2023-07-22T06:39:35;31.50;94.20
44435;DHT22;30138;20.964;105.830;2023-07-22T06:44:46;31.60;94.90
44435;DHT22;30138;20.964;105.830;2023-07-22T06:49:55;31.60;95.40
44435;DHT22;30138;20.964;105.830;2023-07-22T06:55:05;31.70;95.80
44435;DHT22;30138;20.964;105.830;2023-07-22T07:00:16;31.70;96.10
44435;DHT22;30138;20.964;105.830;2023-07-22T07:05:24;31.80;96.50
44435;DHT22;30138;20.964;105.830;2023-07-22T07:10:37;31.90;96.00
44435;DHT22;30138;20.964;105.830;2023-07-22T07:15:49;31.90;95.70
44435;DHT22;30138;20.964;105.830;2023-07-22T07:20:57;32.00;95.50
44435;DHT22;30138;20.964;105.830;2023-07-22T07:26:07;32.00;95.40
44435;DHT22;30138;20.964;105.830;2023-07-22T07:31:17;32.10;95.30
44435;DHT22;30138;20.964;105.830;2023-07-22T07:36:26;32.20;95.40
44435;DHT22;30138;20.964;105.830;2023-07-22T07:41:35;32.20;95.30
44435;DHT22;30138;20.964;105.830;2023-07-22T07:46:46;32.20;95.20
44435;DHT22;30138;20.964;105.830;2023-07-22T07:51:55;32.20;95.20
44435;DHT22;30138;20.964;105.830;2023-07-22T07:57:03;32.30;95.20
44435;DHT22;30138;20.964;105.830;2023-07-22T08:02:14;32.30;95.30
44435;DHT22;30138;20.964;105.830;2023-07-22T08:07:23;32.30;95.30
44435;DHT22;30138;20.964;105.830;2023-07-22T08:12:31;32.30;95.30
44435;DHT22;30138;20.964;105.830;2023-07-22T08:17:44;32.40;95.40
44435;DHT22;30138;20.964;105.830;2023-07-22T08:22:53;32.40;95.40
44435;DHT22;30138;20.964;105.830;2023-07-22T08:28:02;32.40;95.40
44435;DHT22;30138;20.964;105.830;2023-07-22T08:33:13;32.40;95.50
44435;DHT22;30138;20.964;105.830;2023-07-22T08:38:23;32.50;95.60
44435;DHT22;30138;20.964;105.830;2023-07-22T08:43:32;32.50;95.70
44435;DHT22;30138;20.964;105.830;2023-07-22T08:48:43;32.50;95.70
44435;DHT22;30138;20.964;105.830;2023-07-22T08:53:57;32.50;95.80
44435;DHT22;30138;20.964;105.830;2023-07-22T08:59:06;32.40;93.20
44435;DHT22;30138;20.964;105.830;2023-07-22T09:04:17;32.20;78.60
44435;DHT22;30138;20.964;105.830;2023-07-22T09:09:26;31.90;69.80
44435;DHT22;30138;20.964;105.830;2023-07-22T09:14:35;31.70;65.10
44435;DHT22;30138;20.964;105.830;2023-07-22T09:19:52;31.40;61.70
44435;DHT22;30138;20.964;105.830;2023-07-22T09:25:14;31.10;59.40
44435;DHT22;30138;20.964;105.830;2023-07-22T09:30:25;30.90;58.20
44435;DHT22;30138;20.964;105.830;2023-07-22T09:35:45;30.70;56.90
44435;DHT22;30138;20.964;105.830;2023-07-22T09:40:54;30.50;55.90
44435;DHT22;30138;20.964;105.830;2023-07-22T09:46:08;30.30;54.90
44435;DHT22;30138;20.964;105.830;2023-07-22T09:51:19;30.20;57.40
44435;DHT22;30138;20.964;105.830;2023-07-22T09:56:27;30.10;57.60
44435;DHT22;30138;20.964;105.830;2023-07-22T10:01:40;30.00;56.00
44435;DHT22;30138;20.964;105.830;2023-07-22T10:06:53;29.90;53.70
44435;DHT22;30138;20.964;105.830;2023-07-22T10:12:01;29.70;52.10
44435;DHT22;30138;20.964;105.830;2023-07-22T10:17:09;29.70;51.30
44435;DHT22;30138;20.964;105.830;2023-07-22T10:22:19;29.50;50.40
44435;DHT22;30138;20.964;105.830;2023-07-22T10:27:27;29.50;50.00
44435;DHT22;30138;20.964;105.830;2023-07-22T10:32:37;29.30;49.40
44435;DHT22;30138;20.964;105.830;2023-07-22T10:37:48;29.20;49.10
44435;DHT22;30138;20.964;105.830;2023-07-22T10:42:59;29.10;49.20
44435;DHT22;30138;20.964;105.830;2023-07-22T10:48:09;29.00;48.90
44435;DHT22;30138;20.964;105.830;2023-07-22T10:53:31;28.90;48.60
44435;DHT22;30138;20.964;105.830;2023-07-22T10:58:56;28.80;48.30
44435;DHT22;30138;20.964;105.830;2023-07-22T11:04:11;28.70;47.90
44435;DHT22;30138;20.964;105.830;2023-07-22T11:09:41;28.60;48.50
44435;DHT22;30138;20.964;105.830;2023-07-22T11:14:51;28.50;50.10
44435;DHT22;30138;20.964;105.830;2023-07-22T11:20:02;28.50;49.90
44435;DHT22;30138;20.964;105.830;2023-07-22T11:25:18;28.50;53.80
44435;DHT22;30138;20.964;105.830;2023-07-22T11:30:26;28.50;52.10
44435;DHT22;30138;20.964;105.830;2023-07-22T11:35:35;28.50;50.90
44435;DHT22;30138;20.964;105.830;2023-07-22T11:40:47;28.50;59.60
44435;DHT22;30138;20.964;105.830;2023-07-22T11:45:54;28.60;59.20
44435;DHT22;30138;20.964;105.830;2023-07-22T11:51:08;28.60;55.40
44435;DHT22;30138;20.964;105.830;2023-07-22T11:56:21;28.60;56.00
44435;DHT22;30138;20.964;105.830;2023-07-22T12:01:33;28.60;54.20
44435;DHT22;30138;20.964;105.830;2023-07-22T12:06:41;28.60;52.80
44435;DHT22;30138;20.964;105.830;2023-07-22T12:11:56;28.60;55.00
44435;DHT22;30138;20.964;105.830;2023-07-22T12:17:07;28.70;59.10
44435;DHT22;30138;20.964;105.830;2023-07-22T12:22:17;28.80;58.80
44435;DHT22;30138;20.964;105.830;2023-07-22T12:27:31;28.90;60.60
44435;DHT22;30138;20.964;105.830;2023-07-22T12:32:39;28.90;57.70
44435;DHT22;30138;20.964;105.830;2023-07-22T12:37:47;29.00;60.40
44435;DHT22;30138;20.964;105.830;2023-07-22T12:42:58;29.00;57.40
44435;DHT22;30138;20.964;105.830;2023-07-22T12:48:06;29.00;62.60
44435;DHT22;30138;20.964;105.830;2023-07-22T12:53:15;29.00;58.20
44435;DHT22;30138;20.964;105.830;2023-07-22T12:58:25;29.00;57.80
44435;DHT22;30138;20.964;105.830;2023-07-22T13:03:33;28.90;54.60
44435;DHT22;30138;20.964;105.830;2023-07-22T13:08:42;28.80;52.50
44435;DHT22;30138;20.964;105.830;2023-07-22T13:13:52;28.70;52.30
44435;DHT22;30138;20.964;105.830;2023-07-22T13:19:01;28.70;55.50
44435;DHT22;30138;20.964;105.830;2023-07-22T13:24:09;28.60;53.30
44435;DHT22;30138;20.964;105.830;2023-07-22T13:29:20;28.60;51.50
44435;DHT22;30138;20.964;105.830;2023-07-22T13:34:28;28.60;56.40
44435;DHT22;30138;20.964;105.830;2023-07-22T13:39:36;28.50;54.10
44435;DHT22;30138;20.964;105.830;2023-07-22T13:44:47;28.50;51.80
44435;DHT22;30138;20.964;105.830;2023-07-22T13:49:56;28.40;56.90
44435;DHT22;30138;20.964;105.830;2023-07-22T13:55:06;28.40;54.30
44435;DHT22;30138;20.964;105.830;2023-07-22T14:00:16;28.40;57.70
44435;DHT22;30138;20.964;105.830;2023-07-22T14:05:25;28.40;54.40
44435;DHT22;30138;20.964;105.830;2023-07-22T14:10:33;28.30;57.70
44435;DHT22;30138;20.964;105.830;2023-07-22T14:15:46;28.40;60.20
44435;DHT22;30138;20.964;105.830;2023-07-22T14:20:56;28.50;72.60
44435;DHT22;30138;20.964;105.830;2023-07-22T14:26:05;28.50;70.40
44435;DHT22;30138;20.964;105.830;2023-07-22T14:31:21;28.60;65.90
44435;DHT22;30138;20.964;105.830;2023-07-22T14:36:29;28.50;59.70
44435;DHT22;30138;20.964;105.830;2023-07-22T14:41:42;28.50;58.10
44435;DHT22;30138;20.964;105.830;2023-07-22T14:46:53;28.50;62.90
44435;DHT22;30138;20.964;105.830;2023-07-22T14:57:24;28.60;65.50
44435;DHT22;30138;20.964;105.830;2023-07-22T15:02:36;28.60;59.30
44435;DHT22;30138;20.964;105.830;2023-07-22T15:07:45;28.60;62.40
44435;DHT22;30138;20.964;105.830;2023-07-22T15:12:54;28.60;58.00
44435;DHT22;30138;20.964;105.830;2023-07-22T15:18:04;28.50;59.40
44435;DHT22;30138;20.964;105.830;2023-07-22T15:23:13;28.50;57.50
44435;DHT22;30138;20.964;105.830;2023-07-22T15:28:23;28.50;59.70
44435;DHT22;30138;20.964;105.830;2023-07-22T15:33:34;28.50;57.00
44435;DHT22;30138;20.964;105.830;2023-07-22T15:38:44;28.50;60.10
44435;DHT22;30138;20.964;105.830;2023-07-22T15:43:52;28.40;57.10
44435;DHT22;30138;20.964;105.830;2023-07-22T15:49:04;28.40;59.10
44435;DHT22;30138;20.964;105.830;2023-07-22T15:54:11;28.30;63.10
44435;DHT22;30138;20.964;105.830;2023-07-22T15:59:21;28.50;65.00
44435;DHT22;30138;20.964;105.830;2023-07-22T16:04:35;28.60;67.30
44435;DHT22;30138;20.964;105.830;2023-07-22T16:09:46;28.90;69.20
44435;DHT22;30138;20.964;105.830;2023-07-22T16:14:58;29.10;70.70
44435;DHT22;30138;20.964;105.830;2023-07-22T16:20:12;29.20;72.00
44435;DHT22;30138;20.964;105.830;2023-07-22T16:25:22;29.40;72.90
44435;DHT22;30138;20.964;105.830;2023-07-22T16:30:31;29.60;73.70
44435;DHT22;30138;20.964;105.830;2023-07-22T16:35:48;29.70;74.40
44435;DHT22;30138;20.964;105.830;2023-07-22T16:40:58;29.80;75.20
44435;DHT22;30138;20.964;105.830;2023-07-22T16:46:07;29.90;75.80
44435;DHT22;30138;20.964;105.830;2023-07-22T16:51:18;30.00;76.30
44435;DHT22;30138;20.964;105.830;2023-07-22T16:56:28;30.20;76.90
44435;DHT22;30138;20.964;105.830;2023-07-22T17:01:37;30.20;77.60
44435;DHT22;30138;20.964;105.830;2023-07-22T17:06:47;30.30;78.20
44435;DHT22;30138;20.964;105.830;2023-07-22T17:11:55;30.40;78.80
44435;DHT22;30138;20.964;105.830;2023-07-22T17:17:07;30.50;79.30
44435;DHT22;30138;20.964;105.830;2023-07-22T17:22:55;30.50;80.00
44435;DHT22;30138;20.964;105.830;2023-07-22T17:28:07;30.60;80.60
44435;DHT22;30138;20.964;105.830;2023-07-22T17:33:15;30.70;81.10
44435;DHT22;30138;20.964;105.830;2023-07-22T17:38:25;30.70;81.60
44435;DHT22;30138;20.964;105.830;2023-07-22T17:43:34;30.80;82.20
44435;DHT22;30138;20.964;105.830;2023-07-22T17:48:43;30.80;82.80
44435;DHT22;30138;20.964;105.830;2023-07-22T17:53:56;30.90;83.50
44435;DHT22;30138;20.964;105.830;2023-07-22T17:59:04;30.90;83.90
44435;DHT22;30138;20.964;105.830;2023-07-22T18:04:12;30.90;84.50
44435;DHT22;30138;20.964;105.830;2023-07-22T18:09:22;30.90;85.00
44435;DHT22;30138;20.964;105.830;2023-07-22T18:14:30;31.00;85.80
44435;DHT22;30138;20.964;105.830;2023-07-22T18:19:38;31.00;86.10
44435;DHT22;30138;20.964;105.830;2023-07-22T18:24:48;31.10;86.80
44435;DHT22;30138;20.964;105.830;2023-07-22T18:29:57;31.10;87.30
44435;DHT22;30138;20.964;105.830;2023-07-22T18:35:05;31.10;87.70
44435;DHT22;30138;20.964;105.830;2023-07-22T18:40:16;31.10;88.80
44435;DHT22;30138;20.964;105.830;2023-07-22T18:45:24;30.90;90.80
44435;DHT22;30138;20.964;105.830;2023-07-22T18:50:33;30.80;91.80
44435;DHT22;30138;20.964;105.830;2023-07-22T18:55:44;30.70;92.60
44435;DHT22;30138;20.964;105.830;2023-07-22T19:00:53;30.80;93.40
44435;DHT22;30138;20.964;105.830;2023-07-22T19:06:02;30.70;94.10
44435;DHT22;30138;20.964;105.830;2023-07-22T19:11:11;30.70;94.70
44435;DHT22;30138;20.964;105.830;2023-07-22T19:16:19;30.70;92.30
44435;DHT22;30138;20.964;105.830;2023-07-22T19:21:27;30.40;77.90
44435;DHT22;30138;20.964;105.830;2023-07-22T19:26:39;30.10;69.00
44435;DHT22;30138;20.964;105.830;2023-07-22T19:31:49;29.70;68.80
44435;DHT22;30138;20.964;105.830;2023-07-22T19:36:59;29.70;74.30
44435;DHT22;30138;20.964;105.830;2023-07-22T19:42:09;29.90;77.00
44435;DHT22;30138;20.964;105.830;2023-07-22T19:47:18;30.00;80.30
44435;DHT22;30138;20.964;105.830;2023-07-22T19:52:26;30.10;82.00
44435;DHT22;30138;20.964;105.830;2023-07-22T19:57:36;30.20;84.20
44435;DHT22;30138;20.964;105.830;2023-07-22T20:02:44;30.20;86.00
44435;DHT22;30138;20.964;105.830;2023-07-22T20:07:52;30.20;87.70
44435;DHT22;30138;20.964;105.830;2023-07-22T20:13:03;30.30;89.40
44435;DHT22;30138;20.964;105.830;2023-07-22T20:18:11;30.30;90.50
44435;DHT22;30138;20.964;105.830;2023-07-22T20:23:20;30.40;91.20
44435;DHT22;30138;20.964;105.830;2023-07-22T20:28:31;30.40;91.90
44435;DHT22;30138;20.964;105.830;2023-07-22T20:33:39;30.40;92.50
44435;DHT22;30138;20.964;105.830;2023-07-22T20:38:49;30.40;93.10
44435;DHT22;30138;20.964;105.830;2023-07-22T20:43:59;30.40;93.70
44435;DHT22;30138;20.964;105.830;2023-07-22T20:49:07;30.40;94.20
44435;DHT22;30138;20.964;105.830;2023-07-22T20:54:15;30.50;94.80
44435;DHT22;30138;20.964;105.830;2023-07-22T20:59:26;30.50;95.30
44435;DHT22;30138;20.964;105.830;2023-07-22T21:04:35;30.50;96.20
44435;DHT22;30138;20.964;105.830;2023-07-22T21:09:43;30.50;96.30
44435;DHT22;30138;20.964;105.830;2023-07-22T21:14:54;30.50;96.80
44435;DHT22;30138;20.964;105.830;2023-07-22T21:20:02;30.60;97.30
44435;DHT22;30138;20.964;105.830;2023-07-22T21:25:10;30.60;97.60
44435;DHT22;30138;20.964;105.830;2023-07-22T21:30:22;30.60;98.00
44435;DHT22;30138;20.964;105.830;2023-07-22T21:35:35;30.60;98.30
44435;DHT22;30138;20.964;105.830;2023-07-22T21:40:49;30.60;98.70
44435;DHT22;30138;20.964;105.830;2023-07-22T21:45:59;30.60;99.10
44435;DHT22;30138;20.964;105.830;2023-07-22T21:51:07;30.60;99.50
44435;DHT22;30138;20.964;105.830;2023-07-22T21:56:15;30.60;99.80
44435;DHT22;30138;20.964;105.830;2023-07-22T22:01:26;30.60;99.90
44435;DHT22;30138;20.964;105.830;2023-07-22T22:06:33;30.60;99.90
44435;DHT22;30138;20.964;105.830;2023-07-22T22:11:44;30.70;99.90
44435;DHT22;30138;20.964;105.830;2023-07-22T22:16:55;30.60;99.90
44435;DHT22;30138;20.964;105.830;2023-07-22T22:22:03;30.60;99.90
44435;DHT22;30138;20.964;105.830;2023-07-22T22:27:11;30.70;99.90
44435;DHT22;30138;20.964;105.830;2023-07-22T22:32:25;30.70;99.90
44435;DHT22;30138;20.964;105.830;2023-07-22T22:37:32;30.70;99.90
44435;DHT22;30138;20.964;105.830;2023-07-22T22:42:40;30.80;99.90
44435;DHT22;30138;20.964;105.830;2023-07-22T22:47:52;30.70;99.90
44435;DHT22;30138;20.964;105.830;2023-07-22T22:53:00;30.80;99.90
44435;DHT22;30138;20.964;105.830;2023-07-22T22:58:09;30.70;99.90
44435;DHT22;30138;20.964;105.830;2023-07-22T23:03:19;30.80;99.90
44435;DHT22;30138;20.964;105.830;2023-07-22T23:08:27;30.70;99.90
44435;DHT22;30138;20.964;105.830;2023-07-22T23:13:35;30.80;99.90
44435;DHT22;30138;20.964;105.830;2023-07-22T23:18:45;30.80;99.90
44435;DHT22;30138;20.964;105.830;2023-07-22T23:23:53;30.80;99.90
44435;DHT22;30138;20.964;105.830;2023-07-22T23:29:01;30.80;99.90
44435;DHT22;30138;20.964;105.830;2023-07-22T23:34:11;30.80;99.90
44435;DHT22;30138;20.964;105.830;2023-07-22T23:39:19;30.80;99.90
44435;DHT22;30138;20.964;105.830;2023-07-22T23:44:27;30.80;99.90
44435;DHT22;30138;20.964;105.830;2023-07-22T23:49:38;30.90;99.90
44435;DHT22;30138;20.964;105.830;2023-07-22T23:54:46;30.90;99.90
44435;DHT22;30138;20.964;105.830;2023-07-22T23:59:53;30.80;99.90
